sensor_id;sensor_type;location;lat;lon;timestamp;temperature;humidity
52765;DHT22;38650;44.536;18.664;2022-11-20T00:00:54;10.50;99.90
52765;DHT22;38650;44.536;18.664;2022-11-20T00:03:19;10.60;99.90
52765;DHT22;38650;44.536;18.664;2022-11-20T00:05:45;10.50;99.90
52765;DHT22;38650;44.536;18.664;2022-11-20T00:08:11;10.60;99.90
52765;DHT22;38650;44.536;18.664;2022-11-20T00:10:38;10.60;99.90
52765;DHT22;38650;44.536;18.664;2022-11-20T00:13:06;10.60;99.90
52765;DHT22;38650;44.536;18.664;2022-11-20T00:15:31;10.60;99.90
52765;DHT22;38650;44.536;18.664;2022-11-20T00:17:57;10.70;99.90
52765;DHT22;38650;44.536;18.664;2022-11-20T00:20:23;10.60;99.90
52765;DHT22;38650;44.536;18.664;2022-11-20T00:22:49;10.60;99.90
52765;DHT22;38650;44.536;18.664;2022-11-20T00:25:15;10.60;99.90
52765;DHT22;38650;44.536;18.664;2022-11-20T00:27:41;10.50;99.90
52765;DHT22;38650;44.536;18.664;2022-11-20T00:30:07;10.70;99.90
52765;DHT22;38650;44.536;18.664;2022-11-20T00:32:33;10.50;99.90
52765;DHT22;38650;44.536;18.664;2022-11-20T00:34:58;10.60;99.90
52765;DHT22;38650;44.536;18.664;2022-11-20T00:37:24;10.60;99.90
52765;DHT22;38650;44.536;18.664;2022-11-20T00:39:50;10.60;99.90
52765;DHT22;38650;44.536;18.664;2022-11-20T00:42:15;10.60;99.90
52765;DHT22;38650;44.536;18.664;2022-11-20T00:44:41;10.70;99.90
52765;DHT22;38650;44.536;18.664;2022-11-20T00:47:07;10.80;99.90
52765;DHT22;38650;44.536;18.664;2022-11-20T00:49:32;10.80;99.90
52765;DHT22;38650;44.536;18.664;2022-11-20T00:51:58;10.80;99.90
52765;DHT22;38650;44.536;18.664;2022-11-20T00:54:23;10.70;99.90
52765;DHT22;38650;44.536;18.664;2022-11-20T00:56:49;10.70;99.90
52765;DHT22;38650;44.536;18.664;2022-11-20T00:59:15;10.70;99.90
52765;DHT22;38650;44.536;18.664;2022-11-20T01:01:40;10.70;99.90
52765;DHT22;38650;44.536;18.664;2022-11-20T01:04:06;10.70;99.90
52765;DHT22;38650;44.536;18.664;2022-11-20T01:06:34;10.70;99.90
52765;DHT22;38650;44.536;18.664;2022-11-20T01:09:04;10.70;99.90
52765;DHT22;38650;44.536;18.664;2022-11-20T01:11:32;10.70;99.90
52765;DHT22;38650;44.536;18.664;2022-11-20T01:13:59;10.80;99.90
52765;DHT22;38650;44.536;18.664;2022-11-20T01:16:28;10.80;99.90
52765;DHT22;38650;44.536;18.664;2022-11-20T01:18:57;10.80;99.90
52765;DHT22;38650;44.536;18.664;2022-11-20T01:21:23;10.80;99.90
52765;DHT22;38650;44.536;18.664;2022-11-20T01:23:50;10.80;99.90
52765;DHT22;38650;44.536;18.664;2022-11-20T01:26:19;10.80;99.90
52765;DHT22;38650;44.536;18.664;2022-11-20T01:28:45;10.80;99.90
52765;DHT22;38650;44.536;18.664;2022-11-20T01:33:48;10.90;99.90
52765;DHT22;38650;44.536;18.664;2022-11-20T01:36:15;10.80;99.90
52765;DHT22;38650;44.536;18.664;2022-11-20T01:38:41;10.80;99.90
52765;DHT22;38650;44.536;18.664;2022-11-20T01:41:08;10.80;99.90
52765;DHT22;38650;44.536;18.664;2022-11-20T01:43:35;10.80;99.90
52765;DHT22;38650;44.536;18.664;2022-11-20T01:49:02;10.80;99.90
52765;DHT22;38650;44.536;18.664;2022-11-20T01:51:29;10.70;99.90
52765;DHT22;38650;44.536;18.664;2022-11-20T01:53:59;10.60;99.90
52765;DHT22;38650;44.536;18.664;2022-11-20T01:56:26;10.70;99.90
52765;DHT22;38650;44.536;18.664;2022-11-20T01:58:57;10.70;99.90
52765;DHT22;38650;44.536;18.664;2022-11-20T02:01:23;10.70;99.90
52765;DHT22;38650;44.536;18.664;2022-11-20T02:03:50;10.70;99.90
52765;DHT22;38650;44.536;18.664;2022-11-20T02:06:58;10.60;99.90
52765;DHT22;38650;44.536;18.664;2022-11-20T02:09:22;10.80;99.90
52765;DHT22;38650;44.536;18.664;2022-11-20T02:11:47;10.80;99.90
52765;DHT22;38650;44.536;18.664;2022-11-20T02:14:14;10.80;99.90
52765;DHT22;38650;44.536;18.664;2022-11-20T02:16:45;10.80;99.90
52765;DHT22;38650;44.536;18.664;2022-11-20T02:19:28;10.80;99.90
52765;DHT22;38650;44.536;18.664;2022-11-20T02:24:29;10.80;99.90
52765;DHT22;38650;44.536;18.664;2022-11-20T02:27:08;10.80;99.90
52765;DHT22;38650;44.536;18.664;2022-11-20T02:34:45;10.90;99.90
52765;DHT22;38650;44.536;18.664;2022-11-20T02:37:11;10.90;99.90
52765;DHT22;38650;44.536;18.664;2022-11-20T02:39:37;10.90;99.90
52765;DHT22;38650;44.536;18.664;2022-11-20T02:42:02;10.90;99.90
52765;DHT22;38650;44.536;18.664;2022-11-20T02:44:28;10.90;99.90
52765;DHT22;38650;44.536;18.664;2022-11-20T02:46:57;10.90;99.90
52765;DHT22;38650;44.536;18.664;2022-11-20T02:49:23;10.90;99.90
52765;DHT22;38650;44.536;18.664;2022-11-20T02:51:49;10.80;99.90
52765;DHT22;38650;44.536;18.664;2022-11-20T02:54:14;10.80;99.90
52765;DHT22;38650;44.536;18.664;2022-11-20T02:56:40;10.70;99.90
52765;DHT22;38650;44.536;18.664;2022-11-20T02:59:06;10.70;99.90
52765;DHT22;38650;44.536;18.664;2022-11-20T03:01:32;10.70;99.90
52765;DHT22;38650;44.536;18.664;2022-11-20T03:03:57;10.50;99.90
52765;DHT22;38650;44.536;18.664;2022-11-20T03:06:23;10.40;99.90
52765;DHT22;38650;44.536;18.664;2022-11-20T03:08:49;10.40;99.90
52765;DHT22;38650;44.536;18.664;2022-11-20T03:11:14;10.40;99.90
52765;DHT22;38650;44.536;18.664;2022-11-20T03:13:40;10.50;99.90
52765;DHT22;38650;44.536;18.664;2022-11-20T03:16:14;10.40;99.90
52765;DHT22;38650;44.536;18.664;2022-11-20T03:18:41;10.40;99.90
52765;DHT22;38650;44.536;18.664;2022-11-20T03:21:07;10.40;99.90
52765;DHT22;38650;44.536;18.664;2022-11-20T03:23:34;10.40;99.90
52765;DHT22;38650;44.536;18.664;2022-11-20T03:26:22;10.40;99.90
52765;DHT22;38650;44.536;18.664;2022-11-20T03:28:50;10.40;99.90
52765;DHT22;38650;44.536;18.664;2022-11-20T03:31:18;10.40;99.90
52765;DHT22;38650;44.536;18.664;2022-11-20T03:33:44;10.40;99.90
52765;DHT22;38650;44.536;18.664;2022-11-20T03:36:12;10.30;99.90
52765;DHT22;38650;44.536;18.664;2022-11-20T03:38:39;10.30;99.90
52765;DHT22;38650;44.536;18.664;2022-11-20T03:41:08;10.30;99.90
52765;DHT22;38650;44.536;18.664;2022-11-20T03:43:34;10.20;99.90
52765;DHT22;38650;44.536;18.664;2022-11-20T03:45:59;10.20;99.90
52765;DHT22;38650;44.536;18.664;2022-11-20T03:48:26;10.20;99.90
52765;DHT22;38650;44.536;18.664;2022-11-20T03:50:53;10.20;99.90
52765;DHT22;38650;44.536;18.664;2022-11-20T03:53:19;10.30;99.90
52765;DHT22;38650;44.536;18.664;2022-11-20T03:55:50;10.30;99.90
52765;DHT22;38650;44.536;18.664;2022-11-20T03:58:15;10.30;99.90
52765;DHT22;38650;44.536;18.664;2022-11-20T04:00:41;10.30;99.90
52765;DHT22;38650;44.536;18.664;2022-11-20T04:03:07;10.20;99.90
52765;DHT22;38650;44.536;18.664;2022-11-20T04:05:33;10.20;99.90
52765;DHT22;38650;44.536;18.664;2022-11-20T04:07:59;10.20;99.90
52765;DHT22;38650;44.536;18.664;2022-11-20T04:10:25;10.20;99.90
52765;DHT22;38650;44.536;18.664;2022-11-20T04:12:51;10.10;99.90
52765;DHT22;38650;44.536;18.664;2022-11-20T04:15:16;10.00;99.90
52765;DHT22;38650;44.536;18.664;2022-11-20T04:17:42;10.00;99.90
52765;DHT22;38650;44.536;18.664;2022-11-20T04:20:08;10.00;99.90
52765;DHT22;38650;44.536;18.664;2022-11-20T04:22:33;9.90;99.90
52765;DHT22;38650;44.536;18.664;2022-11-20T04:24:59;9.90;99.90
52765;DHT22;38650;44.536;18.664;2022-11-20T04:27:25;9.90;99.90
52765;DHT22;38650;44.536;18.664;2022-11-20T04:29:50;9.90;99.90
52765;DHT22;38650;44.536;18.664;2022-11-20T04:32:16;9.80;99.90
52765;DHT22;38650;44.536;18.664;2022-11-20T04:34:41;9.80;99.90
52765;DHT22;38650;44.536;18.664;2022-11-20T04:37:07;9.90;99.90
52765;DHT22;38650;44.536;18.664;2022-11-20T04:39:33;9.90;99.90
52765;DHT22;38650;44.536;18.664;2022-11-20T04:41:58;9.90;99.90
52765;DHT22;38650;44.536;18.664;2022-11-20T04:44:42;9.90;99.90
52765;DHT22;38650;44.536;18.664;2022-11-20T04:47:08;9.90;99.90
52765;DHT22;38650;44.536;18.664;2022-11-20T04:49:33;9.70;99.90
52765;DHT22;38650;44.536;18.664;2022-11-20T04:51:59;9.70;99.90
52765;DHT22;38650;44.536;18.664;2022-11-20T04:54:25;9.70;99.90
52765;DHT22;38650;44.536;18.664;2022-11-20T04:56:51;9.80;99.90
52765;DHT22;38650;44.536;18.664;2022-11-20T04:59:16;9.80;99.90
52765;DHT22;38650;44.536;18.664;2022-11-20T05:01:42;9.70;99.90
52765;DHT22;38650;44.536;18.664;2022-11-20T05:04:08;9.70;99.90
52765;DHT22;38650;44.536;18.664;2022-11-20T05:06:33;9.70;99.90
52765;DHT22;38650;44.536;18.664;2022-11-20T05:08:59;9.70;99.90
52765;DHT22;38650;44.536;18.664;2022-11-20T05:11:26;9.60;99.90
52765;DHT22;38650;44.536;18.664;2022-11-20T05:13:54;9.60;99.90
52765;DHT22;38650;44.536;18.664;2022-11-20T05:16:22;9.70;99.90
52765;DHT22;38650;44.536;18.664;2022-11-20T05:18:49;9.70;99.90
52765;DHT22;38650;44.536;18.664;2022-11-20T05:21:15;9.60;99.90
52765;DHT22;38650;44.536;18.664;2022-11-20T05:23:42;9.60;99.90
52765;DHT22;38650;44.536;18.664;2022-11-20T05:26:21;9.60;99.90
52765;DHT22;38650;44.536;18.664;2022-11-20T05:28:47;9.60;99.90
52765;DHT22;38650;44.536;18.664;2022-11-20T05:31:15;9.60;99.90
52765;DHT22;38650;44.536;18.664;2022-11-20T05:33:42;9.70;99.90
52765;DHT22;38650;44.536;18.664;2022-11-20T05:36:09;9.70;99.90
52765;DHT22;38650;44.536;18.664;2022-11-20T05:38:35;9.70;99.90
52765;DHT22;38650;44.536;18.664;2022-11-20T05:41:05;9.70;99.90
52765;DHT22;38650;44.536;18.664;2022-11-20T05:43:35;9.70;99.90
52765;DHT22;38650;44.536;18.664;2022-11-20T05:46:01;9.70;99.90
52765;DHT22;38650;44.536;18.664;2022-11-20T05:48:27;9.60;99.90
52765;DHT22;38650;44.536;18.664;2022-11-20T05:50:53;9.50;99.90
52765;DHT22;38650;44.536;18.664;2022-11-20T05:53:18;9.60;99.90
52765;DHT22;38650;44.536;18.664;2022-11-20T05:55:44;9.60;99.90
52765;DHT22;38650;44.536;18.664;2022-11-20T05:58:09;9.60;99.90
52765;DHT22;38650;44.536;18.664;2022-11-20T06:00:35;9.60;99.90
52765;DHT22;38650;44.536;18.664;2022-11-20T06:03:01;9.60;99.90
52765;DHT22;38650;44.536;18.664;2022-11-20T06:05:27;9.50;99.90
52765;DHT22;38650;44.536;18.664;2022-11-20T06:07:53;9.50;99.90
52765;DHT22;38650;44.536;18.664;2022-11-20T06:10:18;9.50;99.90
52765;DHT22;38650;44.536;18.664;2022-11-20T06:12:44;9.50;99.90
52765;DHT22;38650;44.536;18.664;2022-11-20T06:15:10;9.50;99.90
52765;DHT22;38650;44.536;18.664;2022-11-20T06:17:35;9.60;99.90
52765;DHT22;38650;44.536;18.664;2022-11-20T06:20:01;9.60;99.90
52765;DHT22;38650;44.536;18.664;2022-11-20T06:22:27;9.60;99.90
52765;DHT22;38650;44.536;18.664;2022-11-20T06:24:52;9.60;99.90
52765;DHT22;38650;44.536;18.664;2022-11-20T06:27:18;9.60;99.90
52765;DHT22;38650;44.536;18.664;2022-11-20T06:29:44;9.60;99.90
52765;DHT22;38650;44.536;18.664;2022-11-20T06:32:10;9.60;99.90
52765;DHT22;38650;44.536;18.664;2022-11-20T06:34:35;9.50;99.90
52765;DHT22;38650;44.536;18.664;2022-11-20T06:37:01;9.50;99.90
52765;DHT22;38650;44.536;18.664;2022-11-20T06:39:26;9.50;99.90
52765;DHT22;38650;44.536;18.664;2022-11-20T06:41:52;9.50;99.90
52765;DHT22;38650;44.536;18.664;2022-11-20T06:44:18;9.50;99.90
52765;DHT22;38650;44.536;18.664;2022-11-20T06:46:43;9.60;99.90
52765;DHT22;38650;44.536;18.664;2022-11-20T06:49:09;9.60;99.90
52765;DHT22;38650;44.536;18.664;2022-11-20T06:51:35;9.60;99.90
52765;DHT22;38650;44.536;18.664;2022-11-20T06:54:00;9.60;99.90
52765;DHT22;38650;44.536;18.664;2022-11-20T06:56:26;9.60;99.90
52765;DHT22;38650;44.536;18.664;2022-11-20T06:58:52;9.60;99.90
52765;DHT22;38650;44.536;18.664;2022-11-20T07:01:18;9.60;99.90
52765;DHT22;38650;44.536;18.664;2022-11-20T07:03:43;9.60;99.90
52765;DHT22;38650;44.536;18.664;2022-11-20T07:06:09;9.50;99.90
